Time;durP1;ratioP1;P1;durP2;ratioP2;P2;SDS_P1;SDS_P2;PMS_P1;PMS_P2;Temp;Humidity;BMP_temperature;BMP_pressure;BME280_temperature;BME280_humidity;BME280_pressure;Samples;Min_cycle;Max_cycle;Signal;HPM_P1;HPM_P2
2023/05/09 00:00:27;;;;;;;48.47;19.33;;;17.60;95.00;;;;;;5134020;28;20048;-73
2023/05/09 00:02:53;;;;;;;49.95;18.70;;;17.70;95.00;;;;;;5133912;28;20027;-73
2023/05/09 00:05:19;;;;;;;51.88;19.80;;;17.60;95.00;;;;;;5133793;28;20399;-74
2023/05/09 00:07:45;;;;;;;46.60;19.63;;;17.50;95.10;;;;;;5132974;28;20024;-74
2023/05/09 00:10:11;;;;;;;45.30;18.50;;;17.60;95.20;;;;;;5134051;28;20020;-74
2023/05/09 00:12:36;;;;;;;50.72;19.80;;;17.60;95.10;;;;;;5133857;28;20073;-74
2023/05/09 00:15:02;;;;;;;45.65;18.88;;;17.50;95.10;;;;;;5132909;28;20024;-73
2023/05/09 00:17:29;;;;;;;47.90;19.45;;;17.60;95.20;;;;;;5132882;28;20051;-74
2023/05/09 00:19:55;;;;;;;41.92;17.67;;;17.60;95.20;;;;;;5133813;28;20023;-73
2023/05/09 00:22:21;;;;;;;44.92;17.60;;;17.60;95.00;;;;;;5115609;28;20058;-74
2023/05/09 00:24:47;;;;;;;42.83;17.27;;;17.60;95.00;;;;;;5133722;28;20081;-74
2023/05/09 00:27:14;;;;;;;37.22;16.13;;;17.60;95.00;;;;;;5133729;28;20020;-74
2023/05/09 00:29:39;;;;;;;39.00;15.38;;;17.50;94.90;;;;;;5132688;28;20016;-74
2023/05/09 00:32:05;;;;;;;46.55;17.67;;;17.50;94.80;;;;;;5133686;28;20030;-74
2023/05/09 00:34:31;;;;;;;47.83;18.20;;;17.40;94.80;;;;;;5132633;28;20043;-74
2023/05/09 00:36:57;;;;;;;46.97;18.35;;;17.40;95.00;;;;;;5133648;28;20030;-74
2023/05/09 00:39:22;;;;;;;43.28;17.38;;;17.40;95.10;;;;;;5133581;28;20024;-74
2023/05/09 00:41:48;;;;;;;39.38;17.02;;;17.40;95.20;;;;;;5132469;28;20027;-73
2023/05/09 00:44:14;;;;;;;44.83;17.38;;;17.50;95.20;;;;;;5133601;28;20024;-73
2023/05/09 00:46:39;;;;;;;44.75;17.58;;;17.50;95.50;;;;;;5132503;28;20016;-74
2023/05/09 00:49:05;;;;;;;49.00;18.70;;;17.50;95.10;;;;;;5132697;28;20024;-73
2023/05/09 00:51:31;;;;;;;43.90;17.20;;;17.50;95.20;;;;;;5132577;28;20031;-73
2023/05/09 00:53:57;;;;;;;42.40;17.40;;;17.50;95.20;;;;;;5133614;28;20026;-74
2023/05/09 00:56:23;;;;;;;41.85;16.95;;;17.50;95.30;;;;;;5133444;28;20447;-74
2023/05/09 00:58:49;;;;;;;42.38;17.45;;;17.50;95.20;;;;;;5132578;28;20064;-73
2023/05/09 01:01:15;;;;;;;51.42;19.80;;;17.50;95.20;;;;;;5132269;28;20024;-73
2023/05/09 01:03:41;;;;;;;49.80;19.23;;;17.30;95.40;;;;;;5133283;28;20044;-74
2023/05/09 01:06:22;;;;;;;44.95;18.52;;;17.30;95.60;;;;;;5133401;28;20020;-74
2023/05/09 01:09:14;;;;;;;46.70;19.13;;;17.30;95.60;;;;;;5133725;28;20040;-74
2023/05/09 01:11:55;;;;;;;43.50;18.38;;;17.40;95.50;;;;;;5137118;28;20030;-74
2023/05/09 01:14:55;;;;;;;46.70;18.23;;;17.40;95.60;;;;;;5137167;28;20023;-74
2023/05/09 01:17:47;;;;;;;44.50;17.90;;;17.40;95.50;;;;;;5135904;28;20439;-73
2023/05/09 01:20:36;;;;;;;44.60;17.23;;;17.40;95.30;;;;;;5137097;28;20028;-74
2023/05/09 01:23:14;;;;;;;41.60;16.55;;;17.40;95.30;;;;;;5136777;28;20031;-74
2023/05/09 01:25:52;;;;;;;36.05;15.05;;;17.40;95.40;;;;;;5136845;28;20012;-74
2023/05/09 01:28:40;;;;;;;37.05;16.00;;;17.40;95.30;;;;;;5136889;28;20095;-74
2023/05/09 01:31:07;;;;;;;43.63;16.65;;;17.40;95.20;;;;;;5096576;28;20101;-74
2023/05/09 01:33:37;;;;;;;41.67;17.63;;;17.40;95.20;;;;;;5136564;28;20023;-74
2023/05/09 01:36:11;;;;;;;41.92;16.40;;;17.40;95.30;;;;;;5136670;28;20023;-74
2023/05/09 01:38:37;;;;;;;42.05;16.23;;;17.30;95.30;;;;;;5136603;28;20132;-74
2023/05/09 01:41:05;;;;;;;37.83;15.50;;;17.40;95.30;;;;;;5136468;28;20045;-74
2023/05/09 01:43:34;;;;;;;45.83;17.73;;;17.40;95.20;;;;;;5136478;28;20032;-74
2023/05/09 01:46:01;;;;;;;47.70;19.67;;;17.40;95.30;;;;;;5136402;28;20170;-74
2023/05/09 01:48:29;;;;;;;40.45;16.50;;;17.30;95.50;;;;;;5135485;28;20038;-73
2023/05/09 01:50:57;;;;;;;42.75;16.77;;;17.20;95.60;;;;;;5136331;28;20019;-74
2023/05/09 01:53:26;;;;;;;45.20;18.13;;;17.30;95.70;;;;;;5136266;28;20035;-74
2023/05/09 01:55:52;;;;;;;44.67;18.17;;;17.30;95.60;;;;;;5136232;28;20024;-73
2023/05/09 01:58:20;;;;;;;46.80;18.45;;;17.30;95.50;;;;;;5136182;27;20020;-73
2023/05/09 02:00:47;;;;;;;41.85;17.00;;;17.30;95.50;;;;;;5136133;28;20053;-74
2023/05/09 02:03:13;;;;;;;45.67;18.35;;;17.30;95.50;;;;;;5135791;28;20050;-74
2023/05/09 02:05:41;;;;;;;52.40;19.65;;;17.30;95.60;;;;;;5118013;28;20543;-74
2023/05/09 02:08:08;;;;;;;46.80;17.73;;;17.30;95.60;;;;;;5136001;28;20015;-74
2023/05/09 02:10:34;;;;;;;48.33;19.50;;;17.30;95.60;;;;;;5135930;28;20023;-73
2023/05/09 02:13:00;;;;;;;43.95;18.77;;;17.30;95.60;;;;;;5135891;27;20055;-73
2023/05/09 02:15:28;;;;;;;45.78;18.80;;;17.20;95.60;;;;;;5134898;28;20039;-74
2023/05/09 02:17:53;;;;;;;48.58;19.23;;;17.20;95.70;;;;;;5135826;28;20083;-73
2023/05/09 02:20:19;;;;;;;48.58;19.25;;;17.20;95.60;;;;;;5135682;28;20422;-73
2023/05/09 02:22:45;;;;;;;45.10;19.27;;;17.10;95.60;;;;;;5135586;28;20028;-74
2023/05/09 02:25:15;;;;;;;45.25;17.98;;;17.20;95.70;;;;;;5135687;28;20403;-74
2023/05/09 02:27:44;;;;;;;50.03;18.48;;;17.10;95.50;;;;;;5135681;28;20012;-73
2023/05/09 02:30:16;;;;;;;47.08;19.00;;;17.00;95.70;;;;;;5135556;28;20039;-74
2023/05/09 02:32:43;;;;;;;45.25;17.70;;;16.90;95.90;;;;;;5135665;28;20023;-74
2023/05/09 02:35:10;;;;;;;45.50;18.48;;;16.90;96.00;;;;;;5135351;28;20039;-74
2023/05/09 02:37:36;;;;;;;48.97;19.85;;;16.90;96.10;;;;;;5135399;28;20035;-73
2023/05/09 02:40:04;;;;;;;47.75;19.00;;;16.90;96.00;;;;;;5135337;28;20069;-74
2023/05/09 02:42:30;;;;;;;45.17;17.52;;;16.90;96.10;;;;;;5135246;28;20031;-74
2023/05/09 02:44:55;;;;;;;40.72;17.38;;;16.90;96.10;;;;;;5100309;28;20020;-74
2023/05/09 02:47:21;;;;;;;43.88;17.05;;;16.90;96.10;;;;;;5135167;28;20020;-74
2023/05/09 02:49:47;;;;;;;45.65;17.55;;;16.90;96.10;;;;;;5135109;28;20144;-74
2023/05/09 02:52:13;;;;;;;46.17;17.55;;;16.90;96.00;;;;;;5135082;28;20027;-74
2023/05/09 02:54:39;;;;;;;38.38;15.82;;;16.80;96.00;;;;;;5135075;28;20142;-73
2023/05/09 02:57:05;;;;;;;38.95;16.00;;;16.80;96.00;;;;;;5134072;28;20027;-74
2023/05/09 02:59:31;;;;;;;40.72;17.08;;;16.80;96.00;;;;;;5134967;28;20030;-74
2023/05/09 03:01:57;;;;;;;41.75;17.00;;;16.80;96.00;;;;;;5134838;28;20065;-74
2023/05/09 03:04:24;;;;;;;36.88;15.77;;;16.80;96.00;;;;;;5134563;28;20478;-73
2023/05/09 03:06:50;;;;;;;37.65;15.80;;;16.80;96.40;;;;;;5133889;28;20034;-74
2023/05/09 03:09:15;;;;;;;38.05;17.05;;;16.80;96.00;;;;;;5134826;28;20043;-73
2023/05/09 03:11:41;;;;;;;39.45;16.67;;;16.80;95.90;;;;;;5134695;28;20027;-73
2023/05/09 03:14:07;;;;;;;37.90;17.38;;;16.80;95.90;;;;;;5134674;28;20053;-74
2023/05/09 03:16:33;;;;;;;40.00;16.02;;;16.70;95.90;;;;;;5134621;28;20038;-73
2023/05/09 03:18:59;;;;;;;35.92;15.55;;;16.70;96.00;;;;;;5133559;28;20038;-74
2023/05/09 03:21:25;;;;;;;38.25;16.08;;;16.70;96.00;;;;;;5134455;28;20028;-73
2023/05/09 03:23:50;;;;;;;36.15;15.20;;;16.60;96.00;;;;;;5116495;28;20027;-74
2023/05/09 03:26:16;;;;;;;33.22;14.68;;;16.60;96.10;;;;;;5133379;28;20058;-74
2023/05/09 03:28:42;;;;;;;36.92;15.77;;;16.60;96.20;;;;;;5134419;28;20020;-74
2023/05/09 03:31:07;;;;;;;33.05;15.52;;;16.60;96.20;;;;;;5134384;28;20028;-73
2023/05/09 03:33:33;;;;;;;36.03;16.25;;;16.60;96.30;;;;;;5133819;28;20031;-73
2023/05/09 03:35:58;;;;;;;35.60;15.07;;;16.60;96.30;;;;;;5134298;28;20040;-74
2023/05/09 03:38:24;;;;;;;35.95;14.93;;;16.60;96.30;;;;;;5134257;28;20057;-73
2023/05/09 03:40:52;;;;;;;36.22;15.65;;;16.60;96.20;;;;;;5134251;28;20032;-74
2023/05/09 03:43:18;;;;;;;33.65;15.98;;;16.60;96.30;;;;;;5134132;28;20019;-74
2023/05/09 03:45:44;;;;;;;35.15;14.93;;;16.60;96.30;;;;;;5133256;28;20024;-74
2023/05/09 03:48:10;;;;;;;38.17;17.08;;;16.60;96.30;;;;;;5134128;28;20027;-73
2023/05/09 03:50:36;;;;;;;37.63;16.25;;;16.60;96.40;;;;;;5134121;28;20075;-73
2023/05/09 03:53:01;;;;;;;36.67;15.98;;;16.60;96.40;;;;;;5134082;28;20046;-74
2023/05/09 03:55:27;;;;;;;34.97;15.18;;;16.60;96.40;;;;;;5133000;28;20020;-73
2023/05/09 03:57:53;;;;;;;35.25;16.33;;;16.60;96.30;;;;;;5132925;28;20080;-74
2023/05/09 04:00:20;;;;;;;35.63;15.00;;;16.50;96.30;;;;;;5134007;28;20024;-74
2023/05/09 04:02:47;;;;;;;37.58;15.07;;;16.50;96.40;;;;;;5133856;28;20038;-73
2023/05/09 04:05:13;;;;;;;33.75;14.82;;;16.50;96.50;;;;;;5115751;28;20036;-73
2023/05/09 04:07:38;;;;;;;36.50;15.85;;;16.50;96.50;;;;;;5133025;28;20020;-74
2023/05/09 04:10:05;;;;;;;35.80;15.65;;;16.50;96.50;;;;;;5133066;28;20035;-73
2023/05/09 04:12:30;;;;;;;35.20;15.90;;;16.50;96.70;;;;;;5132921;28;20023;-74
2023/05/09 04:14:56;;;;;;;33.08;15.60;;;16.40;96.90;;;;;;5133768;28;20031;-73
2023/05/09 04:17:22;;;;;;;36.80;15.15;;;16.40;96.90;;;;;;5115794;28;20027;-73
2023/05/09 04:19:48;;;;;;;34.10;14.77;;;16.40;96.90;;;;;;5132885;28;20028;-73
2023/05/09 04:22:14;;;;;;;33.15;14.90;;;16.50;96.90;;;;;;5133718;28;20034;-73
2023/05/09 04:24:40;;;;;;;32.90;14.88;;;16.50;96.80;;;;;;5115807;28;20039;-73
2023/05/09 04:27:05;;;;;;;33.33;15.40;;;16.50;96.70;;;;;;5133722;28;20467;-73
2023/05/09 04:29:31;;;;;;;37.75;16.23;;;16.40;96.70;;;;;;5132663;28;20024;-73
2023/05/09 04:31:56;;;;;;;34.40;15.23;;;16.50;96.70;;;;;;5133660;28;20035;-73
2023/05/09 04:34:22;;;;;;;37.55;15.52;;;16.40;96.80;;;;;;5132650;28;20028;-74
2023/05/09 04:36:48;;;;;;;35.90;15.07;;;16.40;96.90;;;;;;5115542;28;20027;-74
2023/05/09 04:39:13;;;;;;;35.45;15.70;;;16.40;96.90;;;;;;5115586;28;20054;-74
2023/05/09 04:41:39;;;;;;;37.63;15.07;;;16.40;96.90;;;;;;5132472;28;20028;-74
2023/05/09 04:44:05;;;;;;;32.35;13.98;;;16.40;97.00;;;;;;5134292;28;20058;-74
2023/05/09 04:46:30;;;;;;;35.10;15.25;;;16.40;96.90;;;;;;5136700;28;20051;-74
2023/05/09 04:48:56;;;;;;;30.33;14.50;;;16.40;97.00;;;;;;5136585;28;20410;-73
2023/05/09 04:51:22;;;;;;;32.90;14.95;;;16.40;96.90;;;;;;5137587;28;20035;-74
2023/05/09 04:53:47;;;;;;;33.97;15.30;;;16.40;96.90;;;;;;5136311;28;20016;-73
2023/05/09 04:56:13;;;;;;;34.55;14.90;;;16.40;96.90;;;;;;5137325;28;20126;-74
2023/05/09 04:58:39;;;;;;;33.90;15.07;;;16.50;97.00;;;;;;5137346;28;20034;-74
2023/05/09 05:01:05;;;;;;;34.85;14.80;;;16.50;97.00;;;;;;5136366;28;20027;-74
2023/05/09 05:03:31;;;;;;;31.52;13.52;;;16.50;96.80;;;;;;5136965;28;20027;-74
2023/05/09 05:05:57;;;;;;;36.22;15.23;;;16.40;96.70;;;;;;5136074;28;20042;-73
2023/05/09 05:08:23;;;;;;;36.25;15.25;;;16.40;96.80;;;;;;5137081;28;20027;-73
2023/05/09 05:10:48;;;;;;;29.88;14.18;;;16.40;97.00;;;;;;5136249;28;20027;-73
2023/05/09 05:13:14;;;;;;;31.58;14.23;;;16.40;97.00;;;;;;5137087;28;20041;-73
2023/05/09 05:15:41;;;;;;;32.22;14.35;;;16.40;97.10;;;;;;5118963;28;20051;-73
2023/05/09 05:18:06;;;;;;;34.42;15.82;;;16.40;96.90;;;;;;5136904;28;20048;-73
2023/05/09 05:20:32;;;;;;;33.63;14.43;;;16.50;96.90;;;;;;5136932;28;20069;-73
2023/05/09 05:22:58;;;;;;;31.33;14.23;;;16.50;96.80;;;;;;5136777;28;20065;-73
2023/05/09 05:25:24;;;;;;;29.60;13.18;;;16.50;97.10;;;;;;5135883;28;20145;-73
2023/05/09 05:27:50;;;;;;;31.63;13.93;;;16.40;97.40;;;;;;5135780;28;20061;-73
2023/05/09 05:30:17;;;;;;;26.67;13.75;;;16.50;97.50;;;;;;5136699;28;20144;-73
2023/05/09 05:32:43;;;;;;;28.83;13.70;;;16.50;97.30;;;;;;5136722;28;20031;-73
2023/05/09 05:35:10;;;;;;;28.58;13.05;;;16.50;97.30;;;;;;5136567;28;20027;-73
2023/05/09 05:37:38;;;;;;;32.33;14.13;;;16.50;97.30;;;;;;5118975;28;20030;-73
2023/05/09 05:40:04;;;;;;;27.23;12.68;;;16.50;97.00;;;;;;5135553;28;20024;-73
2023/05/09 05:42:30;;;;;;;29.02;12.90;;;16.50;97.10;;;;;;5135363;28;20028;-73
2023/05/09 05:44:56;;;;;;;24.95;12.38;;;16.50;97.20;;;;;;5136364;28;20027;-73
2023/05/09 05:47:22;;;;;;;26.35;12.30;;;16.60;97.30;;;;;;5135256;28;20024;-73
2023/05/09 05:49:47;;;;;;;22.63;12.27;;;16.50;97.20;;;;;;5136287;28;20068;-73
2023/05/09 05:52:13;;;;;;;26.30;12.73;;;16.60;97.20;;;;;;5136223;28;20040;-73
2023/05/09 05:54:39;;;;;;;28.08;13.45;;;16.60;97.20;;;;;;5135878;28;20032;-73
2023/05/09 05:57:04;;;;;;;25.80;12.80;;;16.60;96.90;;;;;;5136214;28;20069;-73
2023/05/09 05:59:31;;;;;;;26.02;12.02;;;16.60;96.80;;;;;;5136088;28;20028;-73
2023/05/09 06:01:57;;;;;;;26.27;13.15;;;16.60;96.90;;;;;;5136017;28;20095;-73
2023/05/09 06:04:22;;;;;;;23.35;12.43;;;16.60;97.10;;;;;;5134904;28;20055;-73
2023/05/09 06:06:48;;;;;;;27.00;13.18;;;16.50;97.00;;;;;;5117846;28;20026;-73
2023/05/09 06:09:13;;;;;;;25.73;13.95;;;16.50;97.30;;;;;;5135888;28;20055;-73
2023/05/09 06:11:39;;;;;;;24.13;13.13;;;16.50;97.40;;;;;;5134848;28;20023;-73
2023/05/09 06:14:05;;;;;;;25.52;12.65;;;16.50;97.50;;;;;;5135832;28;20024;-73
2023/05/09 06:16:30;;;;;;;26.20;13.13;;;16.50;97.30;;;;;;5117633;28;20036;-73
2023/05/09 06:18:56;;;;;;;27.50;12.73;;;16.60;97.40;;;;;;5135745;28;20032;-73
2023/05/09 06:21:22;;;;;;;27.00;13.45;;;16.50;97.40;;;;;;5135545;28;20032;-73
2023/05/09 06:23:47;;;;;;;26.15;12.82;;;16.50;97.40;;;;;;5135548;28;20061;-73
2023/05/09 06:26:13;;;;;;;24.38;13.25;;;16.50;97.40;;;;;;5134530;28;20028;-73
2023/05/09 06:28:40;;;;;;;25.50;13.25;;;16.60;97.50;;;;;;5117666;28;20024;-73
2023/05/09 06:31:06;;;;;;;29.77;14.80;;;16.60;97.50;;;;;;5135488;28;20477;-73
2023/05/09 06:33:31;;;;;;;28.63;14.57;;;16.60;97.50;;;;;;5134468;28;20022;-73
2023/05/09 06:35:58;;;;;;;28.90;14.10;;;16.60;97.50;;;;;;5135332;28;20085;-73
2023/05/09 06:38:24;;;;;;;27.27;13.93;;;16.60;97.50;;;;;;5135381;28;20079;-73
2023/05/09 06:40:50;;;;;;;29.27;14.35;;;16.60;97.70;;;;;;5135307;28;20050;-73
2023/05/09 06:43:15;;;;;;;28.05;14.68;;;16.70;97.80;;;;;;5135201;28;20088;-73
2023/05/09 06:45:41;;;;;;;28.98;13.55;;;16.70;97.70;;;;;;5117113;28;20028;-73
2023/05/09 06:48:07;;;;;;;29.35;13.50;;;16.70;98.00;;;;;;5117090;28;20031;-73
2023/05/09 06:50:32;;;;;;;29.35;13.40;;;16.80;97.90;;;;;;5134143;28;20020;-73
2023/05/09 06:52:58;;;;;;;27.65;13.70;;;16.80;98.00;;;;;;5134983;28;20054;-73
2023/05/09 06:55:24;;;;;;;27.10;14.05;;;16.80;98.00;;;;;;5133920;28;20056;-73
2023/05/09 06:57:49;;;;;;;30.17;14.10;;;16.90;98.30;;;;;;5133957;28;20020;-73
2023/05/09 07:00:15;;;;;;;25.83;13.38;;;16.90;98.10;;;;;;5133783;28;20032;-73
2023/05/09 07:02:41;;;;;;;27.23;13.90;;;16.90;97.60;;;;;;5133893;28;20031;-72
2023/05/09 07:05:09;;;;;;;26.65;13.02;;;17.00;97.60;;;;;;5134733;27;20067;-73
2023/05/09 07:07:35;;;;;;;24.90;12.82;;;16.90;97.10;;;;;;5134100;28;20071;-73
2023/05/09 07:10:03;;;;;;;28.13;14.57;;;16.90;97.50;;;;;;5134683;28;20020;-73
2023/05/09 07:12:30;;;;;;;26.08;13.10;;;17.10;97.30;;;;;;5134604;28;20026;-73
2023/05/09 07:14:56;;;;;;;24.35;12.70;;;17.00;97.60;;;;;;5133585;28;20038;-73
2023/05/09 07:17:23;;;;;;;23.48;12.77;;;17.00;97.50;;;;;;5134600;28;20031;-73
2023/05/09 07:19:49;;;;;;;25.55;12.27;;;17.00;97.40;;;;;;5134436;28;20046;-73
2023/05/09 07:22:15;;;;;;;25.38;13.80;;;16.90;97.40;;;;;;5134304;28;20031;-74
2023/05/09 07:24:40;;;;;;;25.17;14.50;;;17.00;97.10;;;;;;5134445;28;20024;-74
2023/05/09 07:27:06;;;;;;;22.92;12.00;;;17.10;96.30;;;;;;5133484;28;20028;-74
2023/05/09 07:29:31;;;;;;;26.15;13.82;;;17.00;96.70;;;;;;5134355;28;20030;-74
2023/05/09 07:31:57;;;;;;;24.42;12.23;;;17.10;96.90;;;;;;5116474;28;20031;-74
2023/05/09 07:34:24;;;;;;;27.52;12.98;;;17.10;97.00;;;;;;5134169;28;20031;-74
2023/05/09 07:36:49;;;;;;;25.85;13.23;;;17.10;97.10;;;;;;5116551;28;20023;-74
2023/05/09 07:39:15;;;;;;;26.30;12.80;;;17.20;97.20;;;;;;5134223;28;20034;-74
2023/05/09 07:41:41;;;;;;;25.08;14.10;;;17.20;97.10;;;;;;5134178;28;20027;-74
2023/05/09 07:44:08;;;;;;;25.80;12.98;;;17.20;96.80;;;;;;5133222;28;20038;-74
2023/05/09 07:46:36;;;;;;;22.13;12.15;;;17.20;97.00;;;;;;5133137;28;20028;-74
2023/05/09 07:49:03;;;;;;;25.30;13.45;;;17.20;97.10;;;;;;5133246;28;20019;-74
2023/05/09 07:51:28;;;;;;;25.38;12.57;;;17.30;97.20;;;;;;5133238;28;20087;-74
2023/05/09 07:53:55;;;;;;;22.92;12.20;;;17.20;96.80;;;;;;5134042;28;20028;-74
2023/05/09 07:56:21;;;;;;;22.25;12.65;;;17.20;96.90;;;;;;5133187;28;20020;-74
2023/05/09 07:58:47;;;;;;;24.08;12.35;;;17.30;97.30;;;;;;5133059;28;20083;-74
2023/05/09 08:01:13;;;;;;;22.35;13.02;;;17.40;96.80;;;;;;5133982;28;20032;-74
2023/05/09 08:03:38;;;;;;;25.52;13.13;;;17.30;96.70;;;;;;5133666;28;20062;-74
2023/05/09 08:06:04;;;;;;;24.73;12.75;;;17.30;96.90;;;;;;5134106;28;20024;-74
2023/05/09 08:08:30;;;;;;;24.88;12.68;;;17.40;96.60;;;;;;5133848;28;20027;-74
2023/05/09 08:10:56;;;;;;;24.25;13.32;;;17.40;96.60;;;;;;5132911;28;20023;-74
2023/05/09 08:13:21;;;;;;;19.33;11.68;;;17.40;96.70;;;;;;5133850;28;20039;-74
2023/05/09 08:15:47;;;;;;;21.42;11.35;;;17.40;95.80;;;;;;5133821;28;20036;-74
2023/05/09 08:18:13;;;;;;;18.58;10.60;;;17.30;95.90;;;;;;5134849;28;20052;-74
2023/05/09 08:20:39;;;;;;;19.40;11.70;;;17.30;95.70;;;;;;5137015;28;20413;-74
2023/05/09 08:23:05;;;;;;;19.90;11.57;;;17.20;96.00;;;;;;5138002;28;20032;-74
2023/05/09 08:25:31;;;;;;;19.02;11.05;;;17.20;95.90;;;;;;5137983;28;20031;-74
2023/05/09 08:27:56;;;;;;;19.73;11.32;;;17.20;96.30;;;;;;5136873;28;20038;-74
2023/05/09 08:30:22;;;;;;;18.00;10.43;;;17.20;96.00;;;;;;5119892;28;20024;-74
2023/05/09 08:32:47;;;;;;;19.80;11.13;;;17.20;96.00;;;;;;5137805;28;20478;-74
2023/05/09 08:35:13;;;;;;;19.00;9.57;;;17.20;95.90;;;;;;5137726;28;20032;-74
2023/05/09 08:37:39;;;;;;;18.52;9.75;;;17.20;95.60;;;;;;5137730;28;20028;-74
2023/05/09 08:40:08;;;;;;;18.65;10.10;;;17.20;95.20;;;;;;5137695;28;20027;-74
2023/05/09 08:42:36;;;;;;;16.23;10.00;;;17.20;95.00;;;;;;5136677;28;20023;-74
2023/05/09 08:45:09;;;;;;;14.63;8.45;;;17.10;95.50;;;;;;5137563;28;20016;-74
2023/05/09 08:47:37;;;;;;;12.80;8.15;;;17.10;95.30;;;;;;5137756;28;20097;-74
2023/05/09 08:50:03;;;;;;;17.27;9.57;;;17.20;95.60;;;;;;5137505;28;20023;-74
2023/05/09 08:52:33;;;;;;;13.15;7.47;;;17.30;95.30;;;;;;5136342;28;20081;-74
2023/05/09 08:55:06;;;;;;;13.23;7.78;;;17.20;94.70;;;;;;5136474;28;20024;-74
2023/05/09 08:57:35;;;;;;;12.57;7.40;;;17.30;94.80;;;;;;5137550;28;20027;-74
2023/05/09 09:00:03;;;;;;;11.15;7.32;;;17.30;94.60;;;;;;5137339;28;20028;-74
2023/05/09 09:02:29;;;;;;;10.25;6.72;;;17.30;94.50;;;;;;5137131;28;20024;-74
2023/05/09 09:04:55;;;;;;;10.93;6.93;;;17.40;94.40;;;;;;5137038;28;20448;-74
2023/05/09 09:07:22;;;;;;;9.70;6.97;;;17.40;94.40;;;;;;5137172;28;20016;-74
2023/05/09 09:09:49;;;;;;;10.50;5.97;;;17.50;94.40;;;;;;5137102;28;20053;-74
2023/05/09 09:12:16;;;;;;;8.98;6.22;;;17.40;94.20;;;;;;5137085;28;20023;-74
2023/05/09 09:14:50;;;;;;;5.72;4.22;;;17.50;94.50;;;;;;5137043;28;20031;-74
2023/05/09 09:17:21;;;;;;;7.60;4.63;;;17.50;93.50;;;;;;5137041;28;20020;-74
2023/05/09 09:19:51;;;;;;;6.93;4.38;;;17.40;92.70;;;;;;5136990;28;20028;-74
2023/05/09 09:22:19;;;;;;;7.80;4.97;;;17.50;93.00;;;;;;5136925;28;20139;-74
2023/05/09 09:24:45;;;;;;;8.35;4.97;;;17.50;93.20;;;;;;5136862;28;20016;-74
2023/05/09 09:27:11;;;;;;;7.95;4.80;;;17.50;93.00;;;;;;5136704;28;20026;-74
2023/05/09 09:29:37;;;;;;;7.85;4.97;;;17.50;93.00;;;;;;5135098;28;20024;-74
2023/05/09 09:32:04;;;;;;;9.23;4.88;;;17.50;92.80;;;;;;5136642;28;20023;-74
2023/05/09 09:34:29;;;;;;;8.38;5.22;;;17.50;92.90;;;;;;5136564;28;20051;-74
2023/05/09 09:36:55;;;;;;;10.85;5.68;;;17.50;93.00;;;;;;5135586;28;20036;-74
2023/05/09 09:39:21;;;;;;;8.95;5.85;;;17.50;93.20;;;;;;5136539;28;20034;-74
2023/05/09 09:41:47;;;;;;;8.55;5.25;;;17.50;93.00;;;;;;5135501;28;20096;-74
2023/05/09 09:44:14;;;;;;;9.27;6.40;;;17.40;92.90;;;;;;5136574;28;20027;-74
2023/05/09 09:46:44;;;;;;;10.90;6.72;;;17.50;93.00;;;;;;5136365;28;20016;-74
2023/05/09 09:49:11;;;;;;;10.43;6.60;;;17.50;92.70;;;;;;5135340;28;20027;-74
2023/05/09 09:51:36;;;;;;;11.95;6.82;;;17.50;92.80;;;;;;5135311;28;20031;-74
2023/05/09 09:54:03;;;;;;;9.88;6.53;;;17.50;93.00;;;;;;5135207;28;20031;-74
2023/05/09 09:56:44;;;;;;;13.07;6.75;;;17.50;92.90;;;;;;5118470;28;20031;-74
2023/05/09 09:59:12;;;;;;;9.75;5.68;;;17.50;93.00;;;;;;5135130;28;20053;-74
2023/05/09 10:02:00;;;;;;;8.63;5.63;;;17.40;93.00;;;;;;5135989;28;20055;-75
2023/05/09 10:04:31;;;;;;;7.78;5.00;;;17.40;93.60;;;;;;5134860;28;20167;-74
2023/05/09 10:07:04;;;;;;;9.48;5.68;;;17.30;93.40;;;;;;5136117;28;20023;-74
2023/05/09 10:09:31;;;;;;;9.45;5.20;;;17.30;93.60;;;;;;5136044;28;20038;-74
2023/05/09 10:12:01;;;;;;;7.63;5.00;;;17.30;94.00;;;;;;5135909;28;20027;-74
2023/05/09 10:14:29;;;;;;;8.68;4.82;;;17.30;94.00;;;;;;5135842;28;20067;-73
2023/05/09 10:16:56;;;;;;;7.38;4.70;;;17.30;94.30;;;;;;5135748;28;20028;-73
2023/05/09 10:19:25;;;;;;;6.93;4.57;;;17.30;94.60;;;;;;5135629;28;20027;-74
2023/05/09 10:21:51;;;;;;;7.28;4.43;;;17.20;95.00;;;;;;5134659;28;20028;-74
2023/05/09 10:24:25;;;;;;;10.48;4.68;;;17.10;94.70;;;;;;5135628;28;20038;-74
2023/05/09 10:26:54;;;;;;;7.68;4.10;;;17.10;94.80;;;;;;5135665;28;20012;-74
2023/05/09 10:29:23;;;;;;;6.43;4.38;;;17.10;95.00;;;;;;5135541;28;20113;-74
2023/05/09 10:31:57;;;;;;;7.78;4.43;;;17.10;95.20;;;;;;5134465;28;20019;-74
2023/05/09 10:34:25;;;;;;;6.53;4.43;;;17.00;95.70;;;;;;5135426;28;20023;-74
2023/05/09 10:36:51;;;;;;;8.40;5.03;;;17.00;96.00;;;;;;5135385;28;20028;-74
2023/05/09 10:39:17;;;;;;;8.38;4.55;;;17.00;96.10;;;;;;5134118;28;20032;-74
2023/05/09 10:41:43;;;;;;;7.40;4.63;;;17.10;96.20;;;;;;5134114;28;20061;-74
2023/05/09 10:44:09;;;;;;;7.13;4.57;;;16.90;96.10;;;;;;5135148;28;20028;-74
2023/05/09 10:46:36;;;;;;;7.55;4.60;;;17.00;96.40;;;;;;5134388;28;20047;-75
2023/05/09 10:49:02;;;;;;;4.88;3.28;;;16.90;96.50;;;;;;5135113;28;20108;-75
2023/05/09 10:51:28;;;;;;;5.68;3.30;;;16.80;96.70;;;;;;5117294;28;20030;-75
2023/05/09 10:53:55;;;;;;;6.18;3.30;;;16.60;96.00;;;;;;5117182;28;20028;-75
2023/05/09 10:56:38;;;;;;;8.68;2.95;;;16.50;96.50;;;;;;5134054;28;20031;-75
2023/05/09 10:59:04;;;;;;;7.47;3.10;;;16.50;96.80;;;;;;5135007;28;20019;-75
2023/05/09 11:01:37;;;;;;;6.88;3.40;;;16.40;96.90;;;;;;5116911;28;20020;-74
2023/05/09 11:04:15;;;;;;;4.38;3.08;;;16.40;97.10;;;;;;5133551;28;20059;-75
2023/05/09 11:06:44;;;;;;;6.10;3.38;;;16.30;97.40;;;;;;5134099;28;20051;-76
2023/05/09 11:09:27;;;;;;;4.95;3.33;;;16.30;97.60;;;;;;5134910;28;20043;-75
2023/05/09 11:12:06;;;;;;;5.28;3.47;;;16.40;97.50;;;;;;5133859;28;20024;-75
2023/05/09 11:14:34;;;;;;;5.45;3.25;;;16.30;97.60;;;;;;5134669;28;20054;-75
2023/05/09 11:17:23;;;;;;;5.38;2.85;;;16.40;97.50;;;;;;5134607;28;20031;-75
2023/05/09 11:19:49;;;;;;;5.38;3.20;;;16.30;97.40;;;;;;5126357;28;20069;-75
2023/05/09 11:22:31;;;;;;;4.15;3.25;;;16.30;97.60;;;;;;5134506;28;20028;-75
2023/05/09 11:25:08;;;;;;;5.53;3.30;;;16.30;98.10;;;;;;5134605;28;20077;-75
2023/05/09 11:27:40;;;;;;;5.97;3.45;;;16.30;98.00;;;;;;5134534;28;20084;-75
2023/05/09 11:30:06;;;;;;;4.97;3.30;;;16.20;97.80;;;;;;5134310;28;20016;-75
2023/05/09 11:32:54;;;;;;;5.28;3.42;;;16.20;97.80;;;;;;5133366;28;20083;-75
2023/05/09 11:35:21;;;;;;;5.10;3.45;;;16.20;97.90;;;;;;5134134;28;20039;-75
2023/05/09 11:37:59;;;;;;;5.28;3.90;;;16.30;98.00;;;;;;5134342;28;20114;-75
2023/05/09 11:40:26;;;;;;;6.15;3.45;;;16.30;98.10;;;;;;5134415;28;20027;-75
2023/05/09 11:42:54;;;;;;;5.93;3.95;;;16.30;97.80;;;;;;5134224;28;20096;-75
2023/05/09 11:45:21;;;;;;;4.72;3.33;;;16.30;97.90;;;;;;5134215;28;20027;-75
2023/05/09 11:47:48;;;;;;;5.03;3.70;;;16.20;97.70;;;;;;5133251;28;20582;-75
2023/05/09 11:50:16;;;;;;;5.07;3.22;;;16.30;98.20;;;;;;5134147;28;20065;-75
2023/05/09 11:52:42;;;;;;;6.13;3.85;;;16.30;98.40;;;;;;5133778;28;20024;-75
2023/05/09 11:55:09;;;;;;;9.75;3.50;;;16.30;98.10;;;;;;5134076;28;20509;-74
2023/05/09 11:57:48;;;;;;;6.90;3.92;;;16.30;98.20;;;;;;5134100;28;20047;-75
2023/05/09 12:00:25;;;;;;;6.18;3.72;;;16.30;98.20;;;;;;5133032;28;20095;-75
2023/05/09 12:02:51;;;;;;;4.00;2.83;;;16.40;98.40;;;;;;5133043;28;20049;-74
2023/05/09 12:05:20;;;;;;;5.22;3.28;;;16.30;98.10;;;;;;5132812;28;20044;-75
2023/05/09 12:07:46;;;;;;;4.47;3.17;;;16.30;98.30;;;;;;5133948;28;20536;-74
2023/05/09 12:10:18;;;;;;;7.47;3.80;;;16.30;98.30;;;;;;5133897;28;20020;-75
2023/05/09 12:12:47;;;;;;;4.72;3.25;;;16.30;98.40;;;;;;5132929;28;20019;-75
2023/05/09 12:15:13;;;;;;;4.40;3.17;;;16.30;98.80;;;;;;5132877;28;20027;-75
2023/05/09 12:17:40;;;;;;;4.70;3.00;;;16.20;98.40;;;;;;5132856;28;20066;-74
2023/05/09 12:20:07;;;;;;;5.53;3.15;;;16.20;98.70;;;;;;5133996;28;20024;-74
2023/05/09 12:22:33;;;;;;;5.53;2.92;;;16.30;98.80;;;;;;5132783;28;20030;-75
2023/05/09 12:25:06;;;;;;;5.45;3.28;;;16.20;98.70;;;;;;5132750;28;20024;-74
2023/05/09 12:27:33;;;;;;;5.28;3.20;;;16.30;98.80;;;;;;5133978;28;20124;-74
2023/05/09 12:30:07;;;;;;;6.43;3.45;;;16.30;99.00;;;;;;5132682;28;20040;-74
2023/05/09 12:32:33;;;;;;;4.88;3.30;;;16.20;98.80;;;;;;5133790;28;20035;-74
2023/05/09 12:34:59;;;;;;;5.05;3.60;;;16.30;98.90;;;;;;5133634;28;20028;-74